»·PEaware :: N122JP KLAX-KSAN

N122JP :: KLAX-KSAN

FLIGHT INFORMATION

Flight Status: Arrived
Operator: Privately registered:
United States
More flights under this callsign
Pilot: Jens B. (19435)
Aircraft: CESSNA 172 SKYHAWK
(C172)
More flights by this aircraft type
Origin: KLAX Los Angeles Intl
United States
Destination: KSAN San Diego Intl-Lindbergh
United States
More flights between these airports :: More routes between these airports
Route: +
File this flight plan on PilotEdge
Remarks: CAT11
Altitude:
(Current/Filed)
7,500ft
Speed:
(Current/Filed)
0kts
Departed: 03-Aug-18 12:39 PM
Arrived: 03-Aug-18 01:42 PM
Distance/Time
Traveled:
95nm/1:03
Distance/Time
To Go:
Arrived

Flight Plot

Page will automatically refresh every two minutes.


Map Options




Map Legend


Flown Route
Filed Route
Departure Airport
Arrival Airport
Navaid (VOR, NDB)
Fix

Horizontal Profiles

Position Reports

Time Latitude Longitude Heading Altitude Ground
Speed
03-Aug-18 12:29 33.933722 -118.394249 89 106ft 0kts
03-Aug-18 12:30 33.933722 -118.394249 89 106ft 0kts
03-Aug-18 12:31 33.933722 -118.394249 89 106ft 0kts
03-Aug-18 12:32 33.933722 -118.394249 89 106ft 0kts
03-Aug-18 12:33 33.934680 -118.393862 359 106ft 9kts
03-Aug-18 12:34 33.935212 -118.391516 79 106ft 26kts
03-Aug-18 12:35 33.936028 -118.383717 84 106ft 25kts
03-Aug-18 12:36 33.936275 -118.381062 268 106ft 21kts
03-Aug-18 12:37 33.936408 -118.382714 333 106ft 0kts
03-Aug-18 12:38 33.936408 -118.382714 333 106ft 0kts
03-Aug-18 12:39 33.937227 -118.383149 284 106ft 19kts
03-Aug-18 12:40 33.936054 -118.404012 263 724ft 71kts
03-Aug-18 12:41 33.936638 -118.431024 265 1783ft 70kts
03-Aug-18 12:42 33.937651 -118.450851 267 2441ft 75kts
03-Aug-18 12:43 33.938622 -118.478143 267 2974ft 94kts
03-Aug-18 12:44 33.939329 -118.512567 267 3109ft 98kts
03-Aug-18 12:45 33.947121 -118.541362 324 3766ft 98kts
03-Aug-18 12:46 33.963566 -118.523793 117 4410ft 96kts
03-Aug-18 12:47 33.941835 -118.514592 176 5082ft 83kts
03-Aug-18 12:48 33.919537 -118.510585 176 5766ft 79kts
03-Aug-18 12:49 33.898132 -118.506509 176 6397ft 81kts
03-Aug-18 12:50 33.875854 -118.497316 144 6904ft 93kts
03-Aug-18 12:51 33.856247 -118.476457 143 7397ft 94kts
03-Aug-18 12:52 33.833978 -118.453263 142 7472ft 114kts
03-Aug-18 12:53 33.809709 -118.428236 142 7469ft 115kts
03-Aug-18 12:54 33.785262 -118.403107 142 7467ft 116kts
03-Aug-18 12:55 33.760503 -118.377735 142 7466ft 118kts
03-Aug-18 12:56 33.733501 -118.355978 152 7467ft 117kts
03-Aug-18 12:57 33.706730 -118.333458 144 7467ft 118kts
03-Aug-18 12:58 33.682294 -118.308323 140 7466ft 119kts
03-Aug-18 12:59 33.666472 -118.275362 95 7466ft 121kts
03-Aug-18 13:00 33.663796 -118.234953 95 7466ft 121kts
03-Aug-18 13:01 33.645920 -118.204179 145 7466ft 116kts
03-Aug-18 13:02 33.619767 -118.181401 148 7466ft 116kts
03-Aug-18 13:03 33.593397 -118.159128 148 7466ft 115kts
03-Aug-18 13:04 33.567129 -118.136940 148 7469ft 115kts
03-Aug-18 13:05 33.540912 -118.114799 148 7470ft 115kts
03-Aug-18 13:06 33.514910 -118.092774 148 7487ft 114kts
03-Aug-18 13:07 33.488856 -118.070616 148 7484ft 115kts
03-Aug-18 13:08 33.462685 -118.048345 148 7484ft 115kts
03-Aug-18 13:09 33.436733 -118.025839 148 7475ft 115kts
03-Aug-18 13:10 33.410750 -118.003231 148 7484ft 115kts
03-Aug-18 13:11 33.384504 -117.980785 148 7491ft 116kts
03-Aug-18 13:12 33.364610 -117.951251 113 7494ft 120kts
03-Aug-18 13:13 33.348480 -117.916272 125 7493ft 120kts
03-Aug-18 13:14 33.328389 -117.884311 131 7491ft 120kts
03-Aug-18 13:15 33.307750 -117.855703 134 7487ft 120kts
03-Aug-18 13:16 33.285085 -117.826292 135 7484ft 120kts
03-Aug-18 13:17 33.262252 -117.797605 135 7503ft 119kts
03-Aug-18 13:18 33.239141 -117.769024 136 7503ft 120kts
03-Aug-18 13:19 33.216088 -117.740741 136 7503ft 120kts
03-Aug-18 13:20 33.192784 -117.712273 136 7503ft 120kts
03-Aug-18 13:21 33.169396 -117.683773 136 7503ft 120kts
03-Aug-18 13:22 33.146034 -117.655351 136 7503ft 120kts
03-Aug-18 13:23 33.122623 -117.626904 136 7504ft 120kts
03-Aug-18 13:24 33.099201 -117.598470 136 7504ft 120kts
03-Aug-18 13:25 33.075842 -117.570137 136 7504ft 120kts
03-Aug-18 13:26 33.052515 -117.541864 136 7504ft 119kts
03-Aug-18 13:27 33.029151 -117.513618 137 7388ft 120kts
03-Aug-18 13:28 33.006599 -117.486972 138 6881ft 112kts
03-Aug-18 13:29 32.984074 -117.460924 138 6391ft 113kts
03-Aug-18 13:30 32.960873 -117.434931 139 5804ft 114kts
03-Aug-18 13:31 32.937306 -117.409565 141 5210ft 114kts
03-Aug-18 13:32 32.915165 -117.382387 132 4614ft 115kts
03-Aug-18 13:33 32.895177 -117.355192 134 4050ft 115kts
03-Aug-18 13:34 32.873668 -117.328122 137 3435ft 105kts
03-Aug-18 13:35 32.853538 -117.303712 138 2828ft 103kts
03-Aug-18 13:36 32.832887 -117.279456 139 2229ft 105kts
03-Aug-18 13:37 32.812067 -117.255468 139 1688ft 101kts
03-Aug-18 13:38 32.792749 -117.231726 136 1390ft 105kts
03-Aug-18 13:39 32.769343 -117.212218 158 1064ft 99kts
03-Aug-18 13:40 32.753095 -117.192507 100 952ft 89kts
03-Aug-18 13:41 32.747254 -117.163968 111 785ft 93kts
03-Aug-18 13:42 32.729553 -117.163815 257 510ft 72kts
03-Aug-18 13:43 32.732475 -117.184805 284 14ft 38kts
03-Aug-18 13:44 32.734001 -117.186761 105 16ft 14kts
03-Aug-18 13:45 32.732772 -117.179828 53 19ft 18kts
03-Aug-18 13:46 32.732879 -117.179041 115 19ft 0kts
03-Aug-18 13:47 32.732879 -117.179041 115 19ft 0kts
03-Aug-18 13:48 32.732879 -117.179041 115 19ft 0kts
03-Aug-18 13:49 32.732879 -117.179041 115 19ft 0kts

Navigation Log

Ident Type
Flight plan parsing failed, navigation log unavailable